Time;durP1;ratioP1;P1;durP2;ratioP2;P2;SDS_P1;SDS_P2;PMS_P1;PMS_P2;Temp;Humidity;BMP_temperature;BMP_pressure;BME280_temperature;BME280_humidity;BME280_pressure;Samples;Min_cycle;Max_cycle;Signal;HPM_P1;HPM_P2
2023/08/06 00:00:15;;;;;;;6.28;4.63;;;;;;;14.88;100.00;100370.38;4936369;29;20027;-78
2023/08/06 00:02:41;;;;;;;8.25;4.72;;;;;;;14.86;100.00;100369.69;4936316;29;20035;-79
2023/08/06 00:05:06;;;;;;;6.68;4.68;;;;;;;14.74;100.00;100347.34;4936697;29;20028;-78
2023/08/06 00:07:32;;;;;;;6.25;4.72;;;;;;;14.78;100.00;100359.97;4936350;29;20031;-78
2023/08/06 00:09:57;;;;;;;6.35;4.78;;;;;;;14.86;100.00;100373.09;4936143;29;20485;-78
2023/08/06 00:12:23;;;;;;;8.88;6.18;;;;;;;14.83;100.00;100370.75;4919192;29;20055;-79
2023/08/06 00:14:52;;;;;;;9.00;6.47;;;;;;;14.67;100.00;100346.28;4918665;29;20075;-79
2023/08/06 00:17:18;;;;;;;9.52;7.28;;;;;;;14.81;100.00;100371.84;4935874;29;20054;-79
2023/08/06 00:19:43;;;;;;;10.18;6.78;;;;;;;14.78;100.00;100369.53;4934071;29;20035;-78
2023/08/06 00:22:09;;;;;;;8.70;6.05;;;;;;;14.78;100.00;100359.97;4935820;29;20505;-79
2023/08/06 00:24:35;;;;;;;9.45;6.05;;;;;;;14.77;100.00;100357.50;4936133;29;20098;-78
2023/08/06 00:27:00;;;;;;;7.65;5.20;;;;;;;14.63;100.00;100327.50;4935888;29;20032;-79
2023/08/06 00:29:26;;;;;;;5.75;4.55;;;;;;;14.79;100.00;100353.81;4935707;29;20102;-79
2023/08/06 00:31:51;;;;;;;7.00;4.43;;;;;;;14.79;100.00;100355.59;4935803;29;20023;-79
2023/08/06 00:34:16;;;;;;;7.03;4.63;;;;;;;14.64;100.00;100334.34;4935833;29;20027;-79
2023/08/06 00:36:42;;;;;;;6.82;4.60;;;;;;;14.78;100.00;100353.94;4935759;29;20028;-78
2023/08/06 00:39:07;;;;;;;6.47;4.05;;;;;;;14.78;100.00;100351.34;4935872;29;20028;-81
2023/08/06 00:41:32;;;;;;;6.30;4.45;;;;;;;14.79;100.00;100355.59;4935650;29;20067;-79
2023/08/06 00:43:57;;;;;;;7.05;3.83;;;;;;;14.79;100.00;100348.59;4935557;29;20115;-79
2023/08/06 00:46:23;;;;;;;7.80;4.10;;;;;;;14.71;100.00;100335.47;4918267;29;20035;-78
2023/08/06 00:48:50;;;;;;;8.02;4.60;;;;;;;14.81;100.00;100345.88;4935602;29;20024;-80
2023/08/06 00:51:16;;;;;;;5.22;3.97;;;;;;;14.80;100.00;100345.03;4935658;29;20894;-79
2023/08/06 00:53:42;;;;;;;7.15;3.90;;;;;;;14.80;100.00;100344.22;4935810;29;20039;-79
2023/08/06 00:56:09;;;;;;;5.95;3.72;;;;;;;14.81;100.00;100345.88;4935669;29;20504;-79
2023/08/06 00:58:36;;;;;;;6.40;3.78;;;;;;;14.74;100.00;100337.78;4935374;29;20114;-79
2023/08/06 01:01:01;;;;;;;5.85;3.92;;;;;;;14.78;100.00;100335.75;4935308;29;20035;-78
2023/08/06 01:03:27;;;;;;;6.57;3.80;;;;;;;14.81;100.00;100338.88;4935320;29;20051;-79
2023/08/06 01:05:52;;;;;;;5.38;3.70;;;;;;;14.76;100.00;100337.66;4935179;29;20176;-80
2023/08/06 01:08:48;;;;;;;4.78;3.47;;;;;;;14.80;100.00;100342.44;4935532;29;20034;-80
2023/08/06 01:11:30;;;;;;;6.82;4.28;;;;;;;14.80;100.00;100339.84;4935454;29;20031;-79
2023/08/06 01:14:18;;;;;;;6.60;4.32;;;;;;;14.80;100.00;100334.66;4935107;29;20035;-79
2023/08/06 01:16:43;;;;;;;7.38;3.75;;;;;;;14.77;100.00;100329.72;4935243;29;20123;-79
2023/08/06 01:19:19;;;;;;;8.93;4.40;;;;;;;14.66;100.00;100316.88;4935316;29;20118;-79
2023/08/06 01:21:44;;;;;;;6.22;4.13;;;;;;;14.82;100.00;100334.50;4935531;29;20027;-79
2023/08/06 01:24:10;;;;;;;6.93;4.05;;;;;;;14.80;100.00;100350.25;4935086;29;20052;-79
2023/08/06 01:26:43;;;;;;;6.43;4.13;;;;;;;14.78;100.00;100341.75;4935192;29;20110;-78
2023/08/06 01:29:18;;;;;;;6.15;3.90;;;;;;;14.82;100.00;100347.50;4935093;29;20029;-79
2023/08/06 01:31:48;;;;;;;6.22;4.10;;;;;;;14.80;100.00;100345.03;4935193;29;20035;-79
2023/08/06 01:34:22;;;;;;;7.00;4.80;;;;;;;14.77;100.00;100339.31;4935062;29;20367;-79
2023/08/06 01:36:47;;;;;;;8.48;5.30;;;;;;;14.80;100.00;100345.03;4935203;29;20138;-79
2023/08/06 01:39:13;;;;;;;8.07;5.32;;;;;;;14.57;100.00;100313.28;4935090;29;20055;-78
2023/08/06 01:41:38;;;;;;;6.95;4.82;;;;;;;14.74;100.00;100326.56;4935424;29;20031;-79
2023/08/06 01:44:04;;;;;;;7.72;4.75;;;;;;;14.78;100.00;100343.53;4935130;29;20024;-78
2023/08/06 01:46:29;;;;;;;7.03;4.28;;;;;;;14.67;100.00;100331.50;4934702;29;20035;-79
2023/08/06 01:48:54;;;;;;;6.93;4.47;;;;;;;14.68;100.00;100324.53;4934863;29;20099;-79
2023/08/06 01:51:20;;;;;;;7.15;4.82;;;;;;;14.68;100.00;100327.94;4935051;29;20105;-78
2023/08/06 01:53:45;;;;;;;6.13;4.82;;;;;;;14.67;100.00;100328.91;4934954;29;20035;-78
2023/08/06 01:56:10;;;;;;;7.55;5.03;;;;;;;14.79;100.00;100342.59;4918162;29;20454;-78
2023/08/06 01:58:36;;;;;;;8.90;6.40;;;;;;;14.67;100.00;100328.91;4935076;29;20056;-78
2023/08/06 02:01:02;;;;;;;7.38;5.90;;;;;;;14.75;100.00;100339.44;4934701;29;20470;-79
2023/08/06 02:03:27;;;;;;;8.38;5.93;;;;;;;14.62;100.00;100321.50;4935072;29;20050;-79
2023/08/06 02:05:52;;;;;;;10.60;6.07;;;;;;;14.70;100.00;100335.59;4935144;29;20118;-78
2023/08/06 02:08:18;;;;;;;10.68;6.40;;;;;;;14.73;100.00;100341.34;4934883;29;20035;-78
2023/08/06 02:10:44;;;;;;;8.32;5.50;;;;;;;14.71;100.00;100338.06;4934820;29;20529;-78
2023/08/06 02:13:09;;;;;;;9.40;5.57;;;;;;;14.70;100.00;100338.19;4935927;29;20027;-79
2023/08/06 02:15:35;;;;;;;7.15;5.00;;;;;;;14.60;100.00;100322.59;4938005;29;20036;-79
2023/08/06 02:18:00;;;;;;;8.52;4.97;;;;;;;14.58;100.00;100319.31;4938315;29;20078;-79
2023/08/06 02:20:25;;;;;;;7.03;4.20;;;;;;;14.69;100.00;100339.16;4938233;29;20071;-78
2023/08/06 02:22:51;;;;;;;6.53;3.65;;;;;;;14.66;100.00;100342.84;4938262;29;20111;-78
2023/08/06 02:25:16;;;;;;;8.10;4.20;;;;;;;14.69;100.00;100346.94;4938244;29;20439;-78
2023/08/06 02:27:41;;;;;;;6.45;4.40;;;;;;;14.48;100.00;100313.28;4938036;29;20382;-79
2023/08/06 02:30:07;;;;;;;6.68;4.45;;;;;;;14.42;100.00;100300.78;4937800;29;20034;-78
2023/08/06 02:32:35;;;;;;;8.38;5.65;;;;;;;14.66;100.00;100344.63;4938047;29;20036;-78
2023/08/06 02:35:01;;;;;;;6.95;4.80;;;;;;;14.64;100.00;100337.75;4938104;29;20024;-78
2023/08/06 02:37:26;;;;;;;8.40;4.43;;;;;;;14.57;100.00;100326.28;4938071;29;20119;-79
2023/08/06 02:39:51;;;;;;;6.93;4.28;;;;;;;14.35;100.00;100293.53;4937762;29;20031;-78
2023/08/06 02:42:17;;;;;;;6.05;3.85;;;;;;;14.62;100.00;100331.06;4937751;29;20043;-79
2023/08/06 02:44:42;;;;;;;8.07;4.07;;;;;;;14.51;100.00;100313.81;4937795;29;20059;-78
2023/08/06 02:47:07;;;;;;;8.05;3.90;;;;;;;14.62;100.00;100337.09;4937593;29;20051;-79
2023/08/06 02:49:33;;;;;;;6.30;4.18;;;;;;;14.50;100.00;100306.97;4932382;29;20458;-78
2023/08/06 02:51:58;;;;;;;7.18;4.13;;;;;;;14.67;100.00;100328.09;4937778;29;20027;-77
2023/08/06 02:54:23;;;;;;;6.13;3.97;;;;;;;14.51;100.00;100306.03;4937673;29;20024;-79
2023/08/06 02:56:48;;;;;;;6.70;4.22;;;;;;;14.64;100.00;100329.97;4937509;29;20035;-78
2023/08/06 02:59:14;;;;;;;5.47;3.85;;;;;;;14.50;100.00;100311.38;4937432;29;20055;-78
2023/08/06 03:01:39;;;;;;;6.72;4.40;;;;;;;14.59;100.00;100332.16;4937438;29;20304;-78
2023/08/06 03:04:06;;;;;;;7.60;4.43;;;;;;;14.50;100.00;100303.56;4937466;29;20071;-78
2023/08/06 03:06:31;;;;;;;7.30;4.68;;;;;;;14.61;100.00;100321.63;4937377;29;20148;-79
2023/08/06 03:08:57;;;;;;;5.88;3.95;;;;;;;14.62;100.00;100329.28;4937527;29;20046;-79
2023/08/06 03:11:22;;;;;;;6.68;4.45;;;;;;;14.49;100.00;100314.91;4937142;29;20063;-79
2023/08/06 03:13:48;;;;;;;8.98;4.70;;;;;;;14.62;100.00;100333.66;4937102;29;20028;-79
2023/08/06 03:16:13;;;;;;;6.88;4.80;;;;;;;14.61;100.00;100330.25;4937396;29;20030;-78
2023/08/06 03:18:39;;;;;;;8.25;4.72;;;;;;;14.59;100.00;100329.56;4937281;29;20027;-79
2023/08/06 03:21:04;;;;;;;6.72;4.70;;;;;;;14.56;100.00;100331.63;4937106;29;20465;-79
2023/08/06 03:23:30;;;;;;;9.45;4.90;;;;;;;14.43;100.00;100299.81;4937034;29;20047;-79
2023/08/06 03:25:55;;;;;;;6.57;4.25;;;;;;;14.45;100.00;100305.72;4931505;29;20482;-79
2023/08/06 03:28:22;;;;;;;7.95;4.78;;;;;;;14.51;100.00;100319.00;4937019;29;20075;-79
2023/08/06 03:30:47;;;;;;;7.70;4.90;;;;;;;14.54;100.00;100331.72;4936939;29;20036;-79
2023/08/06 03:33:12;;;;;;;7.65;4.20;;;;;;;14.50;100.00;100326.94;4936999;29;20054;-79
2023/08/06 03:35:38;;;;;;;10.75;4.80;;;;;;;14.30;100.00;100297.47;4936987;29;20083;-80
2023/08/06 03:38:03;;;;;;;9.20;4.60;;;;;;;14.50;100.00;100326.94;4936896;29;20031;-79
2023/08/06 03:40:28;;;;;;;10.40;4.82;;;;;;;14.34;100.00;100310.06;4936610;29;20034;-79
2023/08/06 03:42:54;;;;;;;6.72;4.60;;;;;;;14.45;100.00;100319.53;4919666;29;20043;-80
2023/08/06 03:45:19;;;;;;;7.28;4.82;;;;;;;14.46;100.00;100318.63;4936674;29;20492;-79
2023/08/06 03:47:44;;;;;;;6.00;4.45;;;;;;;14.46;100.00;100317.78;4936651;29;20377;-79
2023/08/06 03:50:10;;;;;;;7.40;4.80;;;;;;;14.24;100.00;100285.84;4936740;29;20367;-79
2023/08/06 03:52:35;;;;;;;7.97;4.65;;;;;;;14.49;100.00;100322.72;4936668;29;20055;-79
2023/08/06 03:55:00;;;;;;;8.02;5.10;;;;;;;14.50;100.00;100332.16;4936343;29;20023;-79
2023/08/06 03:57:26;;;;;;;7.38;4.65;;;;;;;14.51;100.00;100336.38;4936504;29;20035;-79
2023/08/06 03:59:51;;;;;;;7.97;4.75;;;;;;;14.32;100.00;100300.75;4934754;29;20183;-81
2023/08/06 04:02:16;;;;;;;7.70;4.85;;;;;;;14.50;100.00;100335.56;4936089;29;20178;-79
2023/08/06 04:04:42;;;;;;;6.72;4.53;;;;;;;14.52;100.00;100338.03;4936479;29;20114;-79
2023/08/06 04:07:07;;;;;;;6.93;4.63;;;;;;;14.38;100.00;100313.22;4936336;29;20028;-79
2023/08/06 04:09:32;;;;;;;7.43;4.97;;;;;;;14.49;100.00;100331.31;4936435;29;20068;-79
2023/08/06 04:11:58;;;;;;;8.07;4.75;;;;;;;14.40;100.00;100320.88;4936096;29;20111;-79
2023/08/06 04:14:26;;;;;;;9.35;4.93;;;;;;;14.52;100.00;100332.81;4936102;29;20027;-79
2023/08/06 04:16:51;;;;;;;8.02;4.93;;;;;;;14.51;100.00;100334.59;4935928;29;20382;-80
2023/08/06 04:19:16;;;;;;;7.75;4.63;;;;;;;14.49;100.00;100335.69;4936029;29;20030;-81
2023/08/06 04:21:41;;;;;;;8.07;5.03;;;;;;;14.52;100.00;100343.22;4935946;29;20030;-79
2023/08/06 04:24:07;;;;;;;8.90;4.43;;;;;;;14.51;100.00;100344.19;4935795;29;20071;-79
2023/08/06 04:26:32;;;;;;;6.90;4.60;;;;;;;14.46;100.00;100341.19;4936066;29;20118;-79
2023/08/06 04:28:57;;;;;;;7.95;4.50;;;;;;;14.51;100.00;100346.78;4936021;29;20031;-79
2023/08/06 04:31:23;;;;;;;6.85;4.72;;;;;;;14.47;100.00;100341.03;4935871;29;20031;-78
2023/08/06 04:33:48;;;;;;;6.68;4.50;;;;;;;14.53;100.00;100350.06;4935631;29;20492;-78
2023/08/06 04:36:14;;;;;;;13.02;4.70;;;;;;;14.54;100.00;100354.28;4935364;29;20088;-79
2023/08/06 04:38:41;;;;;;;7.53;4.20;;;;;;;14.45;100.00;100345.53;4935612;29;20040;-79
2023/08/06 04:41:06;;;;;;;8.93;4.45;;;;;;;14.46;100.00;100339.41;4934076;29;20035;-79
2023/08/06 04:43:32;;;;;;;8.30;4.68;;;;;;;14.46;100.00;100346.38;4935750;29;20024;-79
2023/08/06 04:45:57;;;;;;;8.30;4.50;;;;;;;14.49;100.00;100346.91;4935633;29;20055;-79
2023/08/06 04:48:22;;;;;;;7.72;5.05;;;;;;;14.37;100.00;100314.19;4935335;29;20514;-78
2023/08/06 04:50:49;;;;;;;10.45;4.68;;;;;;;14.66;100.00;100357.63;4933792;29;20095;-78
2023/08/06 04:53:15;;;;;;;7.35;5.25;;;;;;;14.71;100.00;100356.25;4935827;29;20466;-78
2023/08/06 04:55:40;;;;;;;7.90;4.82;;;;;;;14.76;100.00;100364.47;4935672;29;20035;-78
2023/08/06 04:58:06;;;;;;;6.95;4.88;;;;;;;14.81;100.00;100358.88;4933682;29;20055;-78
2023/08/06 05:00:32;;;;;;;8.40;4.63;;;;;;;14.85;100.00;100360.25;4935397;29;20035;-78
2023/08/06 05:03:00;;;;;;;7.75;4.50;;;;;;;14.89;100.00;100359.00;4935021;29;20038;-79
2023/08/06 05:05:25;;;;;;;7.00;4.43;;;;;;;14.92;100.00;100356.94;4935437;29;20039;-79
2023/08/06 05:07:50;;;;;;;7.85;4.38;;;;;;;14.83;100.00;100343.94;4935311;29;20028;-78
2023/08/06 05:10:16;;;;;;;8.30;4.78;;;;;;;14.95;100.00;100352.47;4935439;29;20028;-78
2023/08/06 05:12:42;;;;;;;8.50;4.35;;;;;;;15.08;100.00;100372.03;4935527;29;20082;-78
2023/08/06 05:15:07;;;;;;;6.97;4.55;;;;;;;15.11;100.00;100376.94;4935392;29;20028;-78
2023/08/06 05:17:33;;;;;;;8.02;4.63;;;;;;;15.21;100.00;100376.94;4935055;29;20067;-79
2023/08/06 05:19:59;;;;;;;6.97;4.13;;;;;;;15.28;100.00;100385.03;4935096;29;20027;-79
2023/08/06 05:22:24;;;;;;;6.22;4.15;;;;;;;15.41;100.00;100385.56;4935110;29;20043;-78
2023/08/06 05:24:50;;;;;;;7.75;4.30;;;;;;;15.43;100.00;100388.84;4935318;29;20393;-79
2023/08/06 05:27:15;;;;;;;9.15;4.93;;;;;;;15.40;100.00;100396.94;4917889;29;20071;-79
2023/08/06 05:29:40;;;;;;;8.02;4.50;;;;;;;15.34;100.00;100389.66;4935194;29;20086;-78
2023/08/06 05:32:06;;;;;;;9.60;4.82;;;;;;;15.32;100.00;100405.41;4935001;29;20555;-78
2023/08/06 05:34:31;;;;;;;6.43;4.30;;;;;;;15.12;100.00;100375.97;4934775;29;20032;-77
2023/08/06 05:36:57;;;;;;;8.63;4.80;;;;;;;15.19;100.00;100400.50;4935297;29;20028;-77
2023/08/06 05:39:22;;;;;;;7.43;4.60;;;;;;;15.05;100.00;100382.72;4935063;29;20042;-77
2023/08/06 05:41:48;;;;;;;7.90;4.97;;;;;;;15.14;100.00;100405.31;4935190;29;20051;-79
2023/08/06 05:44:13;;;;;;;7.50;4.60;;;;;;;15.23;100.00;100410.63;4935070;29;20393;-77
2023/08/06 05:46:38;;;;;;;7.97;5.20;;;;;;;15.08;100.00;100389.41;4934975;29;20047;-76
2023/08/06 05:49:04;;;;;;;7.88;5.43;;;;;;;15.30;100.00;100427.34;4937393;29;20031;-77
2023/08/06 05:51:30;;;;;;;8.93;5.38;;;;;;;15.35;100.00;100430.34;4938782;29;20453;-77
2023/08/06 05:53:55;;;;;;;9.52;5.13;;;;;;;15.29;100.00;100399.69;4938753;29;20032;-77
2023/08/06 05:56:21;;;;;;;8.02;4.88;;;;;;;15.50;100.00;100428.97;4938634;29;20039;-77
2023/08/06 05:58:47;;;;;;;9.98;5.28;;;;;;;15.57;100.00;100437.88;4938805;29;20035;-78
2023/08/06 06:01:12;;;;;;;8.15;5.32;;;;;;;15.60;100.00;100440.22;4938550;29;20394;-77
2023/08/06 06:03:38;;;;;;;9.85;5.32;;;;;;;15.68;100.00;100434.34;4938466;29;20027;-77
2023/08/06 06:06:03;;;;;;;6.78;4.80;;;;;;;15.74;100.00;100439.81;4938498;29;20529;-78
2023/08/06 06:08:28;;;;;;;9.27;5.22;;;;;;;15.54;100.00;100400.91;4938462;29;20019;-78
2023/08/06 06:10:54;;;;;;;8.55;5.03;;;;;;;15.55;100.00;100397.34;4938404;29;20031;-77
2023/08/06 06:13:19;;;;;;;9.05;5.68;;;;;;;15.85;100.00;100449.25;4938132;29;20031;-77
2023/08/06 06:15:46;;;;;;;7.70;5.05;;;;;;;15.68;100.00;100423.91;4938426;29;20102;-78
2023/08/06 06:18:12;;;;;;;7.75;5.45;;;;;;;15.81;100.00;100460.88;4938311;29;20052;-77
2023/08/06 06:20:37;;;;;;;12.15;5.20;;;;;;;15.74;100.00;100447.63;4934668;29;20074;-77
2023/08/06 06:23:02;;;;;;;8.20;5.47;;;;;;;15.59;100.00;100429.94;4919544;29;20083;-77
2023/08/06 06:25:28;;;;;;;8.32;5.35;;;;;;;15.84;100.00;100459.81;4919556;29;20042;-77
2023/08/06 06:27:53;;;;;;;8.40;5.90;;;;;;;15.79;100.00;100434.19;4918866;29;20155;-78
2023/08/06 06:30:18;;;;;;;9.65;5.70;;;;;;;16.02;100.00;100466.75;4919207;29;20036;-76
2023/08/06 06:32:44;;;;;;;8.98;6.28;;;;;;;16.10;100.00;100481.66;4901393;29;20047;-79
2023/08/06 06:35:09;;;;;;;9.27;6.00;;;;;;;16.10;100.00;100458.22;4918811;29;20032;-77
2023/08/06 06:37:35;;;;;;;8.15;5.95;;;;;;;16.21;100.00;100473.69;4918805;29;20052;-77
2023/08/06 06:40:00;;;;;;;7.45;5.50;;;;;;;16.37;100.00;100487.91;4918825;29;20036;-77
2023/08/06 06:42:25;;;;;;;9.32;6.13;;;;;;;16.39;100.00;100473.78;4925418;29;20070;-75
2023/08/06 06:44:51;;;;;;;10.15;6.07;;;;;;;16.58;100.00;100494.56;4937913;29;20035;-76
2023/08/06 06:47:16;;;;;;;11.20;6.07;;;;;;;16.64;100.00;100501.00;4920399;29;20046;-76
2023/08/06 06:49:42;;;;;;;8.57;6.50;;;;;;;16.57;100.00;100498.13;4937712;29;20397;-76
2023/08/06 06:52:07;;;;;;;9.27;6.35;;;;;;;16.43;100.00;100471.72;4937658;29;20032;-77
2023/08/06 06:54:33;;;;;;;8.80;6.60;;;;;;;16.61;100.00;100501.25;4937561;29;20031;-77
2023/08/06 06:57:01;;;;;;;9.15;6.45;;;;;;;16.56;100.00;100500.88;4937771;29;20107;-76
2023/08/06 06:59:27;;;;;;;10.68;7.75;;;;;;;16.43;100.00;100479.53;4936263;29;20036;-76
2023/08/06 07:01:52;;;;;;;10.07;7.13;;;;;;;16.47;100.00;100506.94;4937754;29;20035;-76
2023/08/06 07:04:18;;;;;;;9.20;7.38;;;;;;;16.34;100.00;100492.47;4937538;29;20023;-77
2023/08/06 07:06:43;;;;;;;10.25;8.00;;;;;;;16.41;100.00;100505.72;4920490;29;20058;-77
2023/08/06 07:09:08;;;;;;;10.20;7.65;;;;;;;16.21;100.00;100493.72;4937181;29;20027;-76
2023/08/06 07:11:34;;;;;;;11.73;7.80;;;;;;;16.14;100.00;100493.47;4937128;29;20070;-78
2023/08/06 07:13:59;;;;;;;11.80;8.32;;;;;;;16.12;100.00;100504.97;4937351;29;20031;-78
2023/08/06 07:16:25;;;;;;;10.43;7.82;;;;;;;16.11;100.00;100519.78;4937439;29;20500;-78
2023/08/06 07:18:52;;;;;;;12.05;8.82;;;;;;;16.03;100.00;100519.69;4937395;29;20028;-77
2023/08/06 07:21:18;;;;;;;12.00;8.75;;;;;;;16.05;100.00;100525.56;4937164;29;20027;-78
2023/08/06 07:23:52;;;;;;;9.57;7.13;;;;;;;15.97;100.00;100521.03;4936728;29;20408;-78
2023/08/06 07:26:17;;;;;;;5.47;3.20;;;;;;;15.81;100.00;100533.78;4937363;29;20102;-77
2023/08/06 07:28:43;;;;;;;3.28;2.17;;;;;;;15.63;100.00;100545.84;4937131;29;20451;-77
2023/08/06 07:31:08;;;;;;;2.67;1.33;;;;;;;15.44;100.00;100539.66;4937080;29;20030;-77
2023/08/06 07:33:33;;;;;;;2.38;1.05;;;;;;;15.24;100.00;100550.97;4937062;29;20465;-77
2023/08/06 07:35:58;;;;;;;1.33;1.15;;;;;;;15.10;100.00;100546.94;4936769;29;20028;-77
2023/08/06 07:38:24;;;;;;;2.33;1.27;;;;;;;14.91;100.00;100547.72;4936809;29;20027;-76
2023/08/06 07:40:49;;;;;;;3.35;1.70;;;;;;;14.79;100.00;100547.94;4936726;29;20066;-76
2023/08/06 07:43:14;;;;;;;4.07;2.10;;;;;;;14.61;100.00;100561.53;4936910;29;20051;-77
2023/08/06 07:45:40;;;;;;;4.82;2.42;;;;;;;14.29;100.00;100564.19;4936671;29;20031;-76
2023/08/06 07:48:05;;;;;;;22.13;3.95;;;;;;;13.99;100.00;100561.50;4936664;29;20378;-75
2023/08/06 07:50:31;;;;;;;9.43;3.42;;;;;;;13.65;100.00;100553.00;4936513;29;20027;-76
2023/08/06 07:52:56;;;;;;;6.15;3.83;;;;;;;13.60;100.00;100566.38;4936541;29;20028;-76
2023/08/06 07:55:21;;;;;;;6.85;4.32;;;;;;;13.60;100.00;100573.34;4936420;29;20115;-77
2023/08/06 07:57:48;;;;;;;12.13;5.18;;;;;;;13.52;100.00;100567.91;4916528;29;20423;-77
2023/08/06 08:00:14;;;;;;;6.45;4.90;;;;;;;13.43;100.00;100565.09;4917447;29;20386;-76
2023/08/06 08:02:39;;;;;;;7.90;5.40;;;;;;;13.30;100.00;100546.28;4917468;29;20036;-75
2023/08/06 08:05:07;;;;;;;7.57;5.57;;;;;;;13.29;100.00;100547.22;4917373;29;20364;-77
2023/08/06 08:07:32;;;;;;;9.60;5.63;;;;;;;13.00;100.00;100502.00;4900025;29;20374;-79
2023/08/06 08:09:58;;;;;;;9.27;5.70;;;;;;;13.35;100.00;100566.66;4917150;29;20024;-76
2023/08/06 08:12:23;;;;;;;8.88;5.80;;;;;;;13.35;100.00;100574.44;4915493;29;20119;-77
2023/08/06 08:14:48;;;;;;;11.55;5.75;;;;;;;13.42;100.00;100584.22;4917240;29;20031;-75
2023/08/06 08:17:14;;;;;;;10.88;5.90;;;;;;;13.36;100.00;100581.25;4917285;29;20040;-77
2023/08/06 08:19:43;;;;;;;12.85;5.60;;;;;;;13.34;100.00;100585.75;4917127;29;20039;-75
2023/08/06 08:22:08;;;;;;;9.52;5.45;;;;;;;13.37;100.00;100585.50;4915160;29;20410;-76
2023/08/06 08:24:34;;;;;;;11.93;5.85;;;;;;;13.41;100.00;100589.53;4916957;29;20079;-75
2023/08/06 08:26:59;;;;;;;10.05;5.55;;;;;;;13.30;100.00;100561.00;4916971;29;20114;-76
2023/08/06 08:29:25;;;;;;;9.80;5.70;;;;;;;13.42;100.00;100586.81;4923852;29;20119;-76
2023/08/06 08:31:50;;;;;;;12.50;5.80;;;;;;;13.41;100.00;100571.38;4936025;29;20075;-77
2023/08/06 08:34:16;;;;;;;9.25;5.15;;;;;;;12.97;100.00;100517.75;4936156;29;20477;-76
2023/08/06 08:36:42;;;;;;;10.00;5.60;;;;;;;13.59;100.00;100618.38;4918650;29;20036;-77
2023/08/06 08:39:08;;;;;;;10.07;4.57;;;;;;;12.51;100.00;100446.19;4935867;29;20030;-77
2023/08/06 08:41:33;;;;;;;9.43;5.05;;;;;;;13.58;100.00;100614.97;4935496;29;20035;-76
2023/08/06 08:44:00;;;;;;;8.73;4.75;;;;;;;13.60;100.00;100622.63;4935752;29;20035;-76
2023/08/06 08:46:32;;;;;;;9.73;5.03;;;;;;;13.43;100.00;100583.25;4935660;29;20466;-75
2023/08/06 08:49:02;;;;;;;7.85;4.65;;;;;;;13.43;100.00;100587.63;4935555;29;20078;-78
2023/08/06 08:51:28;;;;;;;7.38;4.15;;;;;;;13.63;100.00;100628.38;4935477;29;20036;-77
2023/08/06 08:53:57;;;;;;;9.07;4.47;;;;;;;13.42;100.00;100578.19;4935526;29;20032;-78
2023/08/06 08:56:23;;;;;;;9.32;4.43;;;;;;;13.45;100.00;100578.78;4935509;29;20034;-78
2023/08/06 08:58:48;;;;;;;8.32;4.38;;;;;;;13.62;100.00;100610.34;4935784;29;20036;-79
2023/08/06 09:01:15;;;;;;;5.95;3.47;;;;;;;13.68;100.00;100625.44;4935482;29;20055;-77
2023/08/06 09:03:43;;;;;;;6.60;3.00;;;;;;;13.31;100.00;100579.03;4935316;29;20130;-79
2023/08/06 09:06:11;;;;;;;7.47;3.58;;;;;;;13.07;100.00;100549.78;4935402;29;20059;-80
2023/08/06 09:08:41;;;;;;;7.28;3.20;;;;;;;13.08;100.00;100544.53;4935531;29;20481;-81
2023/08/06 09:11:24;;;;;;;8.15;3.42;;;;;;;13.01;100.00;100543.34;4935612;29;20040;-84
2023/08/06 09:13:50;;;;;;;8.27;3.45;;;;;;;13.67;100.00;100654.94;4935622;29;20024;-81
2023/08/06 09:16:15;;;;;;;5.95;3.00;;;;;;;12.70;100.00;100500.84;4935333;29;20032;-82
2023/08/06 09:18:43;;;;;;;5.20;2.80;;;;;;;12.49;100.00;100463.63;4935347;29;20032;-84
2023/08/06 09:21:15;;;;;;;7.53;3.08;;;;;;;13.08;100.00;100562.66;4935458;29;20059;-81
2023/08/06 09:23:40;;;;;;;;;;;;;;;13.69;100.00;100666.84;4938891;29;20052;-79
2023/08/06 09:26:05;;;;;;;8.32;3.08;;;;;;;13.68;100.00;100669.56;4939369;29;19925;-78
2023/08/06 09:28:42;;;;;;;10.88;3.88;;;;;;;13.76;100.00;100685.31;4939270;29;20032;-77
2023/08/06 09:31:08;;;;;;;9.15;3.30;;;;;;;13.63;100.00;100650.91;4939106;29;20024;-78
2023/08/06 09:33:36;;;;;;;7.53;3.40;;;;;;;13.75;100.00;100678.50;4939311;29;20036;-79
2023/08/06 09:36:09;;;;;;;8.55;3.67;;;;;;;13.80;100.00;100683.34;4939023;29;20037;-77
2023/08/06 09:38:39;;;;;;;11.13;4.00;;;;;;;13.82;100.00;100694.41;4938936;29;20426;-82
2023/08/06 09:41:04;;;;;;;6.13;3.17;;;;;;;13.78;100.00;100689.47;4938995;29;20032;-80
2023/08/06 09:43:29;;;;;;;10.43;3.97;;;;;;;13.75;100.00;100683.69;4939024;29;20379;-78
2023/08/06 09:45:55;;;;;;;5.60;3.20;;;;;;;13.82;100.00;100687.44;4924244;29;20028;-77
2023/08/06 09:48:24;;;;;;;8.80;3.70;;;;;;;13.66;100.00;100669.66;4920665;29;20032;-76
2023/08/06 09:50:52;;;;;;;10.20;4.07;;;;;;;13.36;100.00;100615.81;4919727;29;20028;-76
2023/08/06 09:53:19;;;;;;;11.43;4.50;;;;;;;13.83;100.00;100665.75;4919769;29;20060;-77
2023/08/06 09:55:45;;;;;;;8.38;3.95;;;;;;;14.03;100.00;100690.94;4919801;29;20111;-77
2023/08/06 09:58:11;;;;;;;10.55;3.75;;;;;;;13.84;100.00;100663.97;4919771;29;20036;-77
2023/08/06 10:00:36;;;;;;;8.95;3.83;;;;;;;13.81;100.00;100665.03;4919440;29;20032;-78
2023/08/06 10:03:02;;;;;;;9.15;4.00;;;;;;;13.91;100.00;100675.53;4919607;29;20032;-79
2023/08/06 10:05:27;;;;;;;9.20;4.10;;;;;;;14.00;100.00;100683.41;4919463;29;20083;-77
2023/08/06 10:07:53;;;;;;;9.20;4.18;;;;;;;14.09;100.00;100694.84;4919392;29;20562;-78
2023/08/06 10:10:19;;;;;;;8.93;4.20;;;;;;;13.97;100.00;100675.06;4919728;29;20114;-77
2023/08/06 10:12:54;;;;;;;8.43;4.03;;;;;;;14.20;100.00;100707.78;4919333;29;20095;-73
2023/08/06 10:15:28;;;;;;;9.38;4.60;;;;;;;14.08;100.00;100682.81;4919570;29;20031;-79
2023/08/06 10:17:56;;;;;;;7.65;4.00;;;;;;;14.21;100.00;100721.59;4919329;29;20032;-79
2023/08/06 10:20:22;;;;;;;9.73;3.85;;;;;;;14.13;100.00;100709.22;4919161;29;20036;-79
2023/08/06 10:23:08;;;;;;;9.77;4.13;;;;;;;14.16;100.00;100721.97;4918992;29;20127;-76
2023/08/06 10:25:34;;;;;;;9.20;4.00;;;;;;;14.03;100.00;100701.34;4918873;29;20056;-79
2023/08/06 10:28:06;;;;;;;9.15;4.10;;;;;;;14.25;100.00;100723.00;4919029;29;20048;-79
2023/08/06 10:30:32;;;;;;;9.25;4.05;;;;;;;13.75;100.00;100648.19;4919062;29;20050;-75
2023/08/06 10:33:02;;;;;;;11.02;4.40;;;;;;;14.31;100.00;100723.34;4918778;29;20087;-77
2023/08/06 10:35:34;;;;;;;10.43;4.45;;;;;;;14.39;100.00;100721.91;4918522;29;20028;-76
2023/08/06 10:38:10;;;;;;;7.35;3.88;;;;;;;14.01;100.00;100663.47;4918841;29;20051;-79
2023/08/06 10:40:50;;;;;;;8.93;4.57;;;;;;;14.45;100.00;100724.00;4918739;29;20024;-77
2023/08/06 10:43:34;;;;;;;7.65;3.90;;;;;;;14.31;100.00;100702.53;4918815;29;20450;-73
2023/08/06 10:46:04;;;;;;;7.93;3.78;;;;;;;14.45;100.00;100737.00;4918905;29;20038;-78
2023/08/06 10:48:39;;;;;;;9.25;3.58;;;;;;;14.53;100.00;100730.25;4919022;29;20099;-74
2023/08/06 10:51:10;;;;;;;7.28;3.72;;;;;;;14.58;100.00;100735.91;4918657;29;20032;-75
2023/08/06 10:53:35;;;;;;;5.80;2.92;;;;;;;14.66;100.00;100739.66;4918630;29;20028;-72
2023/08/06 10:56:18;;;;;;;6.50;3.20;;;;;;;14.68;100.00;100746.38;4918321;29;20039;-78
2023/08/06 10:58:45;;;;;;;4.28;2.60;;;;;;;14.61;100.00;100740.84;4918738;29;20118;-79
2023/08/06 11:01:11;;;;;;;7.03;3.00;;;;;;;14.64;100.00;100750.97;4918662;29;20430;-75
2023/08/06 11:03:37;;;;;;;6.68;2.85;;;;;;;14.56;100.00;100726.59;4918684;29;20091;-75
2023/08/06 11:06:03;;;;;;;6.18;2.75;;;;;;;14.57;100.00;100738.63;4918558;29;20055;-76
2023/08/06 11:08:33;;;;;;;4.25;2.40;;;;;;;14.66;100.00;100748.28;4918137;29;20079;-75
2023/08/06 11:11:14;;;;;;;4.20;2.60;;;;;;;14.45;100.00;100722.25;4918611;29;20363;-78
2023/08/06 11:13:41;;;;;;;7.30;2.58;;;;;;;14.43;100.00;100744.06;4918247;29;20021;-75